Winslow, Nebraska
Current Conditions -  °F | °C
As of 6:55 PM on Saturday 22 Nov 2014 (Local Time) from KFET Reporting Station
Overcast Overcast  
Wind Chill: 54°   Ceiling: 1400
Heat Index: 54°   Visibility: 10mi
Dew Point: 49°   Wind: 16mph
Humidity: 84%   Direction: 170°S
Pressure: 29.58"   Gusts: 21mph
Location:  41.61°N, 96.5°W
Report Text: KFET 230055Z AUTO 17014G18KT 10SM OVC014 12/10 A2958 RMK AO2 T01230097
Loading
Personal Weather Stations






























Interactive Weather Map New forecast layout! Learn more

10-Day Weather Forecast

Advertisements
Track Severe Weather on mobile